sensor_id;sensor_type;location;lat;lon;timestamp;pressure;altitude;pressure_sealevel;temperature;humidity
55424;BME280;41294;42.666;23.350;2022-08-01T00:00:34;94901.13;;;21.57;61.76
55424;BME280;41294;42.666;23.350;2022-08-01T00:02:59;94899.91;;;21.58;61.77
55424;BME280;41294;42.666;23.350;2022-08-01T00:05:24;94903.28;;;21.58;61.36
55424;BME280;41294;42.666;23.350;2022-08-01T00:07:50;94894.78;;;21.54;61.64
55424;BME280;41294;42.666;23.350;2022-08-01T00:10:16;94894.94;;;21.44;61.96
55424;BME280;41294;42.666;23.350;2022-08-01T00:12:43;94895.38;;;21.48;62.09
55424;BME280;41294;42.666;23.350;2022-08-01T00:15:11;94893.72;;;21.45;61.81
55424;BME280;41294;42.666;23.350;2022-08-01T00:17:38;94894.88;;;21.49;61.41
55424;BME280;41294;42.666;23.350;2022-08-01T00:20:05;94892.28;;;21.44;61.85
55424;BME280;41294;42.666;23.350;2022-08-01T00:22:32;94904.63;;;21.47;61.53
55424;BME280;41294;42.666;23.350;2022-08-01T00:24:58;94906.59;;;21.46;61.27
55424;BME280;41294;42.666;23.350;2022-08-01T00:27:23;94907.84;;;21.45;61.06
55424;BME280;41294;42.666;23.350;2022-08-01T00:29:49;94910.34;;;21.38;61.35
55424;BME280;41294;42.666;23.350;2022-08-01T00:32:14;94912.31;;;21.37;60.99
55424;BME280;41294;42.666;23.350;2022-08-01T00:34:40;94908.13;;;21.05;64.67
55424;BME280;41294;42.666;23.350;2022-08-01T00:37:05;94917.59;;;21.06;65.34
55424;BME280;41294;42.666;23.350;2022-08-01T00:39:31;94915.16;;;21.08;65.78
55424;BME280;41294;42.666;23.350;2022-08-01T00:41:59;94916.78;;;20.92;67.34
55424;BME280;41294;42.666;23.350;2022-08-01T00:44:24;94914.75;;;20.74;68.43
55424;BME280;41294;42.666;23.350;2022-08-01T00:46:50;94908.69;;;20.74;68.93
55424;BME280;41294;42.666;23.350;2022-08-01T00:49:16;94909.25;;;20.67;68.85
55424;BME280;41294;42.666;23.350;2022-08-01T00:51:41;94915.16;;;20.60;69.29
55424;BME280;41294;42.666;23.350;2022-08-01T00:54:07;94917.19;;;20.54;69.78
55424;BME280;41294;42.666;23.350;2022-08-01T00:56:32;94910.19;;;20.46;69.99
55424;BME280;41294;42.666;23.350;2022-08-01T00:58:58;94911.00;;;20.41;70.15
55424;BME280;41294;42.666;23.350;2022-08-01T01:01:23;94901.06;;;20.36;70.55
55424;BME280;41294;42.666;23.350;2022-08-01T01:03:50;94899.91;;;20.31;70.41
55424;BME280;41294;42.666;23.350;2022-08-01T01:11:48;94887.63;;;20.41;70.22
55424;BME280;41294;42.666;23.350;2022-08-01T01:17:41;94886.41;;;20.18;71.44
55424;BME280;41294;42.666;23.350;2022-08-01T01:20:12;94877.16;;;20.19;71.58
55424;BME280;41294;42.666;23.350;2022-08-01T01:23:12;94880.00;;;20.27;71.16
55424;BME280;41294;42.666;23.350;2022-08-01T01:26:01;94882.69;;;20.27;71.19
55424;BME280;41294;42.666;23.350;2022-08-01T01:31:43;94883.59;;;20.05;72.45
55424;BME280;41294;42.666;23.350;2022-08-01T01:34:11;94871.91;;;20.08;70.62
55424;BME280;41294;42.666;23.350;2022-08-01T01:36:39;94865.44;;;19.98;70.36
55424;BME280;41294;42.666;23.350;2022-08-01T01:39:05;94867.31;;;20.09;69.36
55424;BME280;41294;42.666;23.350;2022-08-01T01:41:32;94858.53;;;20.08;69.21
55424;BME280;41294;42.666;23.350;2022-08-01T01:43:59;94857.78;;;20.13;69.01
55424;BME280;41294;42.666;23.350;2022-08-01T01:46:26;94852.59;;;20.21;68.73
55424;BME280;41294;42.666;23.350;2022-08-01T01:48:55;94854.38;;;20.13;69.75
55424;BME280;41294;42.666;23.350;2022-08-01T01:51:22;94851.25;;;20.09;69.32
55424;BME280;41294;42.666;23.350;2022-08-01T01:54:09;94852.91;;;20.12;68.75
55424;BME280;41294;42.666;23.350;2022-08-01T01:56:35;94851.13;;;19.96;69.01
55424;BME280;41294;42.666;23.350;2022-08-01T01:59:16;94850.72;;;19.86;68.89
55424;BME280;41294;42.666;23.350;2022-08-01T02:01:43;94855.03;;;19.89;68.00
55424;BME280;41294;42.666;23.350;2022-08-01T02:04:10;94843.09;;;19.96;67.02
55424;BME280;41294;42.666;23.350;2022-08-01T02:06:37;94842.19;;;19.88;66.40
55424;BME280;41294;42.666;23.350;2022-08-01T02:09:04;94834.38;;;19.95;65.22
55424;BME280;41294;42.666;23.350;2022-08-01T02:11:30;94835.63;;;19.89;65.72
55424;BME280;41294;42.666;23.350;2022-08-01T02:13:58;94838.00;;;19.92;64.82
55424;BME280;41294;42.666;23.350;2022-08-01T02:16:29;94833.44;;;19.87;63.33
55424;BME280;41294;42.666;23.350;2022-08-01T02:18:55;94840.50;;;19.85;64.61
55424;BME280;41294;42.666;23.350;2022-08-01T02:21:30;94833.66;;;19.95;65.08
55424;BME280;41294;42.666;23.350;2022-08-01T02:24:05;94840.91;;;19.94;65.82
55424;BME280;41294;42.666;23.350;2022-08-01T02:26:33;94840.47;;;19.90;65.64
55424;BME280;41294;42.666;23.350;2022-08-01T02:29:07;94833.66;;;19.89;65.83
55424;BME280;41294;42.666;23.350;2022-08-01T02:31:38;94836.84;;;19.88;63.96
55424;BME280;41294;42.666;23.350;2022-08-01T02:34:06;94848.34;;;19.78;60.77
55424;BME280;41294;42.666;23.350;2022-08-01T02:36:35;94845.44;;;19.76;61.92
55424;BME280;41294;42.666;23.350;2022-08-01T02:39:06;94842.28;;;19.77;64.28
55424;BME280;41294;42.666;23.350;2022-08-01T02:41:38;94849.31;;;19.80;65.47
55424;BME280;41294;42.666;23.350;2022-08-01T02:44:07;94849.06;;;19.78;65.63
55424;BME280;41294;42.666;23.350;2022-08-01T02:46:44;94848.16;;;19.70;66.03
55424;BME280;41294;42.666;23.350;2022-08-01T02:49:14;94847.66;;;19.72;66.38
55424;BME280;41294;42.666;23.350;2022-08-01T02:51:43;94844.09;;;19.64;66.85
55424;BME280;41294;42.666;23.350;2022-08-01T02:54:10;94838.66;;;19.75;66.65
55424;BME280;41294;42.666;23.350;2022-08-01T02:56:37;94839.38;;;19.75;67.49
55424;BME280;41294;42.666;23.350;2022-08-01T02:59:06;94843.00;;;19.78;66.88
55424;BME280;41294;42.666;23.350;2022-08-01T03:01:34;94828.38;;;19.84;66.35
55424;BME280;41294;42.666;23.350;2022-08-01T03:04:00;94837.88;;;19.80;66.07
55424;BME280;41294;42.666;23.350;2022-08-01T03:06:27;94838.88;;;19.77;66.88
55424;BME280;41294;42.666;23.350;2022-08-01T03:08:54;94844.81;;;19.64;66.43
55424;BME280;41294;42.666;23.350;2022-08-01T03:11:22;94846.00;;;19.69;66.24
55424;BME280;41294;42.666;23.350;2022-08-01T03:13:50;94847.66;;;19.72;66.85
55424;BME280;41294;42.666;23.350;2022-08-01T03:16:17;94844.22;;;19.47;68.01
55424;BME280;41294;42.666;23.350;2022-08-01T03:18:44;94843.44;;;19.52;68.10
55424;BME280;41294;42.666;23.350;2022-08-01T03:21:12;94846.63;;;19.51;68.80
55424;BME280;41294;42.666;23.350;2022-08-01T03:23:40;94845.59;;;19.54;68.87
55424;BME280;41294;42.666;23.350;2022-08-01T03:26:07;94852.88;;;19.59;68.67
55424;BME280;41294;42.666;23.350;2022-08-01T03:28:33;94852.78;;;19.70;68.62
55424;BME280;41294;42.666;23.350;2022-08-01T03:31:00;94853.31;;;19.63;68.97
55424;BME280;41294;42.666;23.350;2022-08-01T03:33:26;94851.22;;;19.50;69.70
55424;BME280;41294;42.666;23.350;2022-08-01T03:35:53;94850.44;;;19.61;69.72
55424;BME280;41294;42.666;23.350;2022-08-01T03:38:22;94855.28;;;19.62;70.06
55424;BME280;41294;42.666;23.350;2022-08-01T03:41:02;94850.53;;;19.44;70.51
55424;BME280;41294;42.666;23.350;2022-08-01T03:43:39;94856.38;;;19.43;70.61
55424;BME280;41294;42.666;23.350;2022-08-01T03:46:10;94852.69;;;19.81;69.21
55424;BME280;41294;42.666;23.350;2022-08-01T03:48:41;94861.78;;;20.49;66.14
55424;BME280;41294;42.666;23.350;2022-08-01T03:51:08;94861.16;;;21.04;62.82
55424;BME280;41294;42.666;23.350;2022-08-01T03:53:35;94859.19;;;21.59;61.19
55424;BME280;41294;42.666;23.350;2022-08-01T03:56:02;94856.81;;;22.00;60.06
55424;BME280;41294;42.666;23.350;2022-08-01T03:58:30;94859.97;;;22.69;58.00
55424;BME280;41294;42.666;23.350;2022-08-01T04:00:56;94857.47;;;22.97;57.38
55424;BME280;41294;42.666;23.350;2022-08-01T04:03:22;94852.34;;;22.34;59.13
55424;BME280;41294;42.666;23.350;2022-08-01T04:05:48;94846.22;;;23.11;57.65
55424;BME280;41294;42.666;23.350;2022-08-01T04:08:14;94861.00;;;23.92;55.77
55424;BME280;41294;42.666;23.350;2022-08-01T04:10:39;94857.66;;;24.75;53.18
55424;BME280;41294;42.666;23.350;2022-08-01T04:13:05;94852.09;;;25.15;51.35
55424;BME280;41294;42.666;23.350;2022-08-01T04:15:31;94862.66;;;25.56;50.35
55424;BME280;41294;42.666;23.350;2022-08-01T04:17:57;94859.44;;;25.65;49.48
55424;BME280;41294;42.666;23.350;2022-08-01T04:20:22;94867.41;;;26.23;49.19
55424;BME280;41294;42.666;23.350;2022-08-01T04:22:47;94864.53;;;26.43;48.23
55424;BME280;41294;42.666;23.350;2022-08-01T04:25:26;94858.56;;;26.67;47.67
55424;BME280;41294;42.666;23.350;2022-08-01T04:27:54;94859.41;;;26.92;46.43
55424;BME280;41294;42.666;23.350;2022-08-01T04:30:26;94862.09;;;26.92;47.43
55424;BME280;41294;42.666;23.350;2022-08-01T04:32:54;94856.69;;;27.39;46.46
55424;BME280;41294;42.666;23.350;2022-08-01T04:35:20;94857.00;;;28.06;45.19
55424;BME280;41294;42.666;23.350;2022-08-01T04:37:47;94856.88;;;28.45;44.69
55424;BME280;41294;42.666;23.350;2022-08-01T04:40:16;94862.94;;;28.37;44.56
55424;BME280;41294;42.666;23.350;2022-08-01T04:42:42;94850.50;;;28.50;43.68
55424;BME280;41294;42.666;23.350;2022-08-01T04:45:08;94839.66;;;28.50;43.66
55424;BME280;41294;42.666;23.350;2022-08-01T04:47:36;94840.09;;;28.81;42.79
55424;BME280;41294;42.666;23.350;2022-08-01T04:50:05;94847.31;;;29.12;41.80
55424;BME280;41294;42.666;23.350;2022-08-01T04:52:36;94842.69;;;29.22;42.38
55424;BME280;41294;42.666;23.350;2022-08-01T04:55:03;94855.66;;;28.97;42.26
55424;BME280;41294;42.666;23.350;2022-08-01T04:57:29;94858.09;;;29.20;40.81
55424;BME280;41294;42.666;23.350;2022-08-01T04:59:54;94854.50;;;29.17;41.33
55424;BME280;41294;42.666;23.350;2022-08-01T05:02:22;94844.91;;;29.33;40.74
55424;BME280;41294;42.666;23.350;2022-08-01T05:04:48;94841.13;;;29.02;41.21
55424;BME280;41294;42.666;23.350;2022-08-01T05:07:14;94838.91;;;29.08;41.51
55424;BME280;41294;42.666;23.350;2022-08-01T05:09:41;94833.19;;;29.14;41.15
55424;BME280;41294;42.666;23.350;2022-08-01T05:12:08;94839.31;;;29.48;40.68
55424;BME280;41294;42.666;23.350;2022-08-01T05:14:34;94836.72;;;29.76;40.23
55424;BME280;41294;42.666;23.350;2022-08-01T05:17:01;94838.06;;;29.85;40.09
55424;BME280;41294;42.666;23.350;2022-08-01T05:19:29;94842.34;;;29.88;39.04
55424;BME280;41294;42.666;23.350;2022-08-01T05:21:57;94840.41;;;29.98;39.64
55424;BME280;41294;42.666;23.350;2022-08-01T05:24:23;94831.97;;;30.03;38.51
55424;BME280;41294;42.666;23.350;2022-08-01T05:26:48;94836.94;;;30.42;38.21
55424;BME280;41294;42.666;23.350;2022-08-01T05:29:15;94838.53;;;30.45;38.11
55424;BME280;41294;42.666;23.350;2022-08-01T05:31:40;94832.44;;;30.92;37.25
55424;BME280;41294;42.666;23.350;2022-08-01T05:34:06;94841.00;;;31.26;36.18
55424;BME280;41294;42.666;23.350;2022-08-01T05:36:31;94834.69;;;31.43;36.00
55424;BME280;41294;42.666;23.350;2022-08-01T05:38:57;94841.72;;;31.36;35.58
55424;BME280;41294;42.666;23.350;2022-08-01T05:41:22;94834.38;;;31.58;35.00
55424;BME280;41294;42.666;23.350;2022-08-01T05:43:47;94836.81;;;31.54;34.59
55424;BME280;41294;42.666;23.350;2022-08-01T05:46:13;94820.84;;;31.79;35.18
55424;BME280;41294;42.666;23.350;2022-08-01T05:48:38;94826.09;;;31.86;34.57
55424;BME280;41294;42.666;23.350;2022-08-01T05:51:04;94828.59;;;32.12;34.47
55424;BME280;41294;42.666;23.350;2022-08-01T05:53:29;94839.69;;;31.95;35.28
55424;BME280;41294;42.666;23.350;2022-08-01T05:55:55;94841.03;;;31.07;35.65
55424;BME280;41294;42.666;23.350;2022-08-01T05:58:21;94839.41;;;31.52;34.89
55424;BME280;41294;42.666;23.350;2022-08-01T06:00:46;94843.63;;;31.05;35.02
55424;BME280;41294;42.666;23.350;2022-08-01T06:03:11;94838.25;;;31.45;35.06
55424;BME280;41294;42.666;23.350;2022-08-01T06:05:37;94829.81;;;31.90;34.00
55424;BME280;41294;42.666;23.350;2022-08-01T06:08:03;94829.91;;;31.72;32.91
55424;BME280;41294;42.666;23.350;2022-08-01T06:10:28;94830.03;;;32.13;33.67
55424;BME280;41294;42.666;23.350;2022-08-01T06:12:54;94826.16;;;31.77;33.08
55424;BME280;41294;42.666;23.350;2022-08-01T06:15:20;94831.31;;;31.73;32.94
55424;BME280;41294;42.666;23.350;2022-08-01T06:17:46;94846.03;;;31.30;32.50
55424;BME280;41294;42.666;23.350;2022-08-01T06:20:11;94846.28;;;31.53;31.86
55424;BME280;41294;42.666;23.350;2022-08-01T06:22:37;94850.88;;;31.60;31.66
55424;BME280;41294;42.666;23.350;2022-08-01T06:25:03;94851.47;;;30.92;33.08
55424;BME280;41294;42.666;23.350;2022-08-01T06:27:28;94847.22;;;31.08;33.16
55424;BME280;41294;42.666;23.350;2022-08-01T06:29:54;94849.91;;;31.27;32.63
55424;BME280;41294;42.666;23.350;2022-08-01T06:32:23;94831.28;;;30.95;33.30
55424;BME280;41294;42.666;23.350;2022-08-01T06:34:49;94837.16;;;30.82;33.56
55424;BME280;41294;42.666;23.350;2022-08-01T06:37:15;94837.19;;;31.01;33.07
55424;BME280;41294;42.666;23.350;2022-08-01T06:39:41;94847.31;;;31.38;32.74
55424;BME280;41294;42.666;23.350;2022-08-01T06:42:06;94826.06;;;31.65;32.82
55424;BME280;41294;42.666;23.350;2022-08-01T06:44:32;94833.19;;;31.70;32.62
55424;BME280;41294;42.666;23.350;2022-08-01T06:46:57;94835.44;;;31.83;32.17
55424;BME280;41294;42.666;23.350;2022-08-01T06:49:24;94823.19;;;31.63;32.41
55424;BME280;41294;42.666;23.350;2022-08-01T06:51:49;94822.69;;;31.85;31.94
55424;BME280;41294;42.666;23.350;2022-08-01T06:54:15;94813.03;;;31.54;32.00
55424;BME280;41294;42.666;23.350;2022-08-01T06:56:41;94810.84;;;32.53;31.75
55424;BME280;41294;42.666;23.350;2022-08-01T06:59:06;94803.94;;;32.52;31.63
55424;BME280;41294;42.666;23.350;2022-08-01T07:01:32;94813.31;;;32.28;31.28
55424;BME280;41294;42.666;23.350;2022-08-01T07:03:58;94805.75;;;32.17;31.90
55424;BME280;41294;42.666;23.350;2022-08-01T07:06:24;94798.66;;;32.03;32.65
55424;BME280;41294;42.666;23.350;2022-08-01T07:08:51;94812.31;;;31.93;32.29
55424;BME280;41294;42.666;23.350;2022-08-01T07:11:17;94802.25;;;32.26;31.94
55424;BME280;41294;42.666;23.350;2022-08-01T07:13:42;94797.69;;;31.98;32.50
55424;BME280;41294;42.666;23.350;2022-08-01T07:16:08;94806.16;;;31.63;33.14
55424;BME280;41294;42.666;23.350;2022-08-01T07:18:33;94796.78;;;32.05;32.79
55424;BME280;41294;42.666;23.350;2022-08-01T07:20:59;94804.91;;;31.84;33.41
55424;BME280;41294;42.666;23.350;2022-08-01T07:23:24;94806.16;;;31.63;33.36
55424;BME280;41294;42.666;23.350;2022-08-01T07:25:50;94828.09;;;32.25;32.94
55424;BME280;41294;42.666;23.350;2022-08-01T07:28:17;94810.88;;;31.53;33.31
55424;BME280;41294;42.666;23.350;2022-08-01T07:30:43;94810.34;;;31.84;33.57
55424;BME280;41294;42.666;23.350;2022-08-01T07:33:09;94805.75;;;32.17;32.54
55424;BME280;41294;42.666;23.350;2022-08-01T07:35:35;94797.84;;;31.61;34.21
55424;BME280;41294;42.666;23.350;2022-08-01T07:38:04;94798.53;;;32.01;33.48
55424;BME280;41294;42.666;23.350;2022-08-01T07:40:29;94802.03;;;32.64;32.64
55424;BME280;41294;42.666;23.350;2022-08-01T07:42:55;94811.88;;;33.11;31.79
55424;BME280;41294;42.666;23.350;2022-08-01T07:45:20;94807.19;;;33.02;31.56
55424;BME280;41294;42.666;23.350;2022-08-01T07:47:46;94805.63;;;33.20;31.49
55424;BME280;41294;42.666;23.350;2022-08-01T07:50:12;94808.38;;;32.57;31.54
55424;BME280;41294;42.666;23.350;2022-08-01T07:52:38;94809.81;;;32.79;31.56
55424;BME280;41294;42.666;23.350;2022-08-01T07:55:04;94807.06;;;32.16;31.92
55424;BME280;41294;42.666;23.350;2022-08-01T07:57:29;94812.41;;;31.75;32.88
55424;BME280;41294;42.666;23.350;2022-08-01T07:59:55;94810.09;;;31.81;33.24
55424;BME280;41294;42.666;23.350;2022-08-01T08:02:21;94806.63;;;31.89;32.80
55424;BME280;41294;42.666;23.350;2022-08-01T08:04:46;94816.94;;;31.81;33.09
55424;BME280;41294;42.666;23.350;2022-08-01T08:07:11;94825.53;;;31.87;32.85
55424;BME280;41294;42.666;23.350;2022-08-01T08:09:37;94820.09;;;31.87;33.00
55424;BME280;41294;42.666;23.350;2022-08-01T08:12:02;94814.41;;;32.04;33.38
55424;BME280;41294;42.666;23.350;2022-08-01T08:14:28;94815.00;;;32.03;32.17
55424;BME280;41294;42.666;23.350;2022-08-01T08:16:54;94808.16;;;31.92;33.64
55424;BME280;41294;42.666;23.350;2022-08-01T08:19:20;94810.66;;;31.20;34.04
55424;BME280;41294;42.666;23.350;2022-08-01T08:21:45;94814.28;;;32.02;33.48
55424;BME280;41294;42.666;23.350;2022-08-01T08:24:10;94794.53;;;31.53;33.28
55424;BME280;41294;42.666;23.350;2022-08-01T08:26:51;94802.03;;;31.82;32.72
55424;BME280;41294;42.666;23.350;2022-08-01T08:29:18;94799.06;;;31.79;32.83
55424;BME280;41294;42.666;23.350;2022-08-01T08:31:43;94802.88;;;31.55;33.29
55424;BME280;41294;42.666;23.350;2022-08-01T08:34:09;94798.16;;;31.85;32.82
55424;BME280;41294;42.666;23.350;2022-08-01T08:36:34;94803.03;;;31.87;33.02
55424;BME280;41294;42.666;23.350;2022-08-01T08:39:00;94800.00;;;31.92;33.63
55424;BME280;41294;42.666;23.350;2022-08-01T08:41:26;94803.13;;;31.98;33.37
55424;BME280;41294;42.666;23.350;2022-08-01T08:43:51;94811.31;;;31.98;32.16
55424;BME280;41294;42.666;23.350;2022-08-01T08:46:18;94797.88;;;32.42;32.44
55424;BME280;41294;42.666;23.350;2022-08-01T08:48:45;94801.88;;;31.90;32.29
55424;BME280;41294;42.666;23.350;2022-08-01T08:51:11;94805.88;;;31.89;32.67
55424;BME280;41294;42.666;23.350;2022-08-01T08:53:40;94791.94;;;31.94;32.67
55424;BME280;41294;42.666;23.350;2022-08-01T08:56:11;94800.28;;;31.47;33.02
55424;BME280;41294;42.666;23.350;2022-08-01T08:58:38;94795.25;;;31.63;32.18
55424;BME280;41294;42.666;23.350;2022-08-01T09:01:07;94794.75;;;31.36;32.82
55424;BME280;41294;42.666;23.350;2022-08-01T09:03:36;94807.59;;;31.94;32.08
55424;BME280;41294;42.666;23.350;2022-08-01T09:06:02;94791.88;;;32.04;31.70
55424;BME280;41294;42.666;23.350;2022-08-01T09:08:27;94812.22;;;31.33;32.74
55424;BME280;41294;42.666;23.350;2022-08-01T09:10:53;94802.03;;;31.33;32.61
55424;BME280;41294;42.666;23.350;2022-08-01T09:13:18;94798.19;;;31.27;32.77
55424;BME280;41294;42.666;23.350;2022-08-01T09:15:46;94794.38;;;31.70;32.58
55424;BME280;41294;42.666;23.350;2022-08-01T09:18:31;94792.97;;;31.50;32.75
55424;BME280;41294;42.666;23.350;2022-08-01T09:21:16;94795.28;;;31.44;31.89
55424;BME280;41294;42.666;23.350;2022-08-01T09:26:12;94787.09;;;31.63;32.35
55424;BME280;41294;42.666;23.350;2022-08-01T09:28:38;94773.22;;;31.49;32.37
55424;BME280;41294;42.666;23.350;2022-08-01T09:31:13;94781.53;;;31.42;31.81
55424;BME280;41294;42.666;23.350;2022-08-01T09:33:59;94776.97;;;31.35;31.25
55424;BME280;41294;42.666;23.350;2022-08-01T09:36:51;94773.75;;;31.48;31.42
55424;BME280;41294;42.666;23.350;2022-08-01T09:39:19;94777.41;;;31.31;31.88
55424;BME280;41294;42.666;23.350;2022-08-01T09:41:46;94781.56;;;31.32;31.71
55424;BME280;41294;42.666;23.350;2022-08-01T09:44:12;94772.22;;;31.84;31.95
55424;BME280;41294;42.666;23.350;2022-08-01T09:46:52;94786.75;;;32.08;30.34
55424;BME280;41294;42.666;23.350;2022-08-01T09:49:33;94788.72;;;32.38;30.32
55424;BME280;41294;42.666;23.350;2022-08-01T09:52:19;94781.66;;;32.65;30.87
55424;BME280;41294;42.666;23.350;2022-08-01T09:55:05;94781.38;;;32.82;30.99
55424;BME280;41294;42.666;23.350;2022-08-01T09:57:31;94779.94;;;32.60;31.48
55424;BME280;41294;42.666;23.350;2022-08-01T10:00:00;94761.66;;;32.30;31.96
55424;BME280;41294;42.666;23.350;2022-08-01T10:04:55;94773.00;;;32.48;32.81
55424;BME280;41294;42.666;23.350;2022-08-01T10:07:21;94765.84;;;31.91;32.34
55424;BME280;41294;42.666;23.350;2022-08-01T10:09:47;94761.66;;;32.00;31.81
55424;BME280;41294;42.666;23.350;2022-08-01T10:12:17;94770.22;;;32.06;31.83
55424;BME280;41294;42.666;23.350;2022-08-01T10:14:45;94759.19;;;32.13;31.53
55424;BME280;41294;42.666;23.350;2022-08-01T10:17:14;94768.00;;;32.44;31.42
55424;BME280;41294;42.666;23.350;2022-08-01T10:19:41;94750.94;;;31.72;32.50
55424;BME280;41294;42.666;23.350;2022-08-01T10:22:12;94752.00;;;31.87;31.06
55424;BME280;41294;42.666;23.350;2022-08-01T10:24:46;94767.00;;;30.90;32.64
55424;BME280;41294;42.666;23.350;2022-08-01T10:27:15;94756.84;;;31.09;32.51
55424;BME280;41294;42.666;23.350;2022-08-01T10:32:07;94745.50;;;31.22;33.00
55424;BME280;41294;42.666;23.350;2022-08-01T10:34:35;94746.53;;;31.48;32.69
55424;BME280;41294;42.666;23.350;2022-08-01T10:37:01;94735.41;;;31.44;32.94
55424;BME280;41294;42.666;23.350;2022-08-01T10:39:28;94743.38;;;31.61;33.57
55424;BME280;41294;42.666;23.350;2022-08-01T10:41:56;94739.53;;;30.86;34.25
55424;BME280;41294;42.666;23.350;2022-08-01T10:44:24;94749.38;;;31.19;34.00
55424;BME280;41294;42.666;23.350;2022-08-01T10:46:54;94731.13;;;31.71;33.21
55424;BME280;41294;42.666;23.350;2022-08-01T10:49:26;94745.00;;;31.45;33.32
55424;BME280;41294;42.666;23.350;2022-08-01T10:51:54;94734.41;;;30.71;34.46
55424;BME280;41294;42.666;23.350;2022-08-01T10:54:24;94742.69;;;30.92;33.98
55424;BME280;41294;42.666;23.350;2022-08-01T10:56:51;94746.97;;;30.76;34.00
55424;BME280;41294;42.666;23.350;2022-08-01T10:59:25;94741.06;;;30.98;32.99
55424;BME280;41294;42.666;23.350;2022-08-01T11:02:02;94732.94;;;31.08;33.56
55424;BME280;41294;42.666;23.350;2022-08-01T11:07:34;94729.72;;;31.21;33.61
55424;BME280;41294;42.666;23.350;2022-08-01T11:10:19;94729.06;;;31.51;33.19
55424;BME280;41294;42.666;23.350;2022-08-01T11:12:47;94744.09;;;31.52;33.29
55424;BME280;41294;42.666;23.350;2022-08-01T11:22:30;94719.72;;;31.23;33.65
55424;BME280;41294;42.666;23.350;2022-08-01T11:24:56;94726.59;;;31.15;33.47
55424;BME280;41294;42.666;23.350;2022-08-01T11:27:24;94716.16;;;31.11;34.02
55424;BME280;41294;42.666;23.350;2022-08-01T11:30:23;94713.00;;;31.15;34.12
55424;BME280;41294;42.666;23.350;2022-08-01T11:32:52;94698.44;;;30.92;33.70
55424;BME280;41294;42.666;23.350;2022-08-01T11:35:19;94708.91;;;30.86;34.32
55424;BME280;41294;42.666;23.350;2022-08-01T11:37:47;94703.44;;;30.95;35.17
55424;BME280;41294;42.666;23.350;2022-08-01T11:45:53;94719.91;;;30.97;34.19
55424;BME280;41294;42.666;23.350;2022-08-01T11:48:23;94723.59;;;31.11;34.28
55424;BME280;41294;42.666;23.350;2022-08-01T11:50:53;94711.28;;;31.00;33.91
55424;BME280;41294;42.666;23.350;2022-08-01T11:53:20;94714.50;;;30.69;34.07
55424;BME280;41294;42.666;23.350;2022-08-01T11:55:50;94719.50;;;30.72;34.76
55424;BME280;41294;42.666;23.350;2022-08-01T11:58:21;94715.03;;;30.95;34.85
55424;BME280;41294;42.666;23.350;2022-08-01T12:00:54;94714.44;;;30.97;34.13
55424;BME280;41294;42.666;23.350;2022-08-01T12:03:27;94706.44;;;31.08;34.38
55424;BME280;41294;42.666;23.350;2022-08-01T12:05:54;94698.72;;;30.86;34.52
55424;BME280;41294;42.666;23.350;2022-08-01T12:08:27;94700.00;;;30.94;34.85
55424;BME280;41294;42.666;23.350;2022-08-01T12:10:52;94711.03;;;31.06;35.19
55424;BME280;41294;42.666;23.350;2022-08-01T12:13:18;94705.38;;;31.23;34.77
55424;BME280;41294;42.666;23.350;2022-08-01T12:15:45;94709.56;;;31.14;34.25
55424;BME280;41294;42.666;23.350;2022-08-01T12:18:11;94706.47;;;30.80;34.89
55424;BME280;41294;42.666;23.350;2022-08-01T12:20:38;94711.34;;;30.72;35.19
55424;BME280;41294;42.666;23.350;2022-08-01T12:23:08;94709.94;;;30.62;35.52
55424;BME280;41294;42.666;23.350;2022-08-01T12:25:35;94716.50;;;30.78;35.63
55424;BME280;41294;42.666;23.350;2022-08-01T12:28:02;94710.78;;;30.74;35.58
55424;BME280;41294;42.666;23.350;2022-08-01T12:30:29;94720.38;;;30.65;35.32
55424;BME280;41294;42.666;23.350;2022-08-01T12:32:56;94711.50;;;30.65;35.26
55424;BME280;41294;42.666;23.350;2022-08-01T12:35:27;94715.22;;;30.69;35.23
55424;BME280;41294;42.666;23.350;2022-08-01T12:37:56;94719.22;;;30.68;35.50
55424;BME280;41294;42.666;23.350;2022-08-01T12:40:26;94713.34;;;30.72;35.31
55424;BME280;41294;42.666;23.350;2022-08-01T12:43:06;94710.94;;;30.28;35.73
55424;BME280;41294;42.666;23.350;2022-08-01T12:45:36;94720.66;;;30.41;35.69
55424;BME280;41294;42.666;23.350;2022-08-01T12:48:11;94708.06;;;30.26;36.27
55424;BME280;41294;42.666;23.350;2022-08-01T12:50:38;94713.63;;;30.38;36.01
55424;BME280;41294;42.666;23.350;2022-08-01T12:53:05;94707.72;;;29.85;36.45
55424;BME280;41294;42.666;23.350;2022-08-01T12:55:32;94703.31;;;29.99;36.78
55424;BME280;41294;42.666;23.350;2022-08-01T12:58:09;94700.91;;;30.03;36.03
55424;BME280;41294;42.666;23.350;2022-08-01T13:00:36;94693.19;;;30.08;36.20
55424;BME280;41294;42.666;23.350;2022-08-01T13:03:07;94698.63;;;30.08;36.23
55424;BME280;41294;42.666;23.350;2022-08-01T13:05:54;94701.44;;;29.92;37.17
55424;BME280;41294;42.666;23.350;2022-08-01T13:08:30;94696.09;;;29.75;36.74
55424;BME280;41294;42.666;23.350;2022-08-01T13:11:02;94695.97;;;29.73;37.02
55424;BME280;41294;42.666;23.350;2022-08-01T13:16:07;94694.25;;;29.68;37.03
55424;BME280;41294;42.666;23.350;2022-08-01T13:18:34;94691.09;;;29.71;37.37
55424;BME280;41294;42.666;23.350;2022-08-01T13:21:19;94692.13;;;29.85;37.09
55424;BME280;41294;42.666;23.350;2022-08-01T13:24:04;94687.84;;;29.92;37.03
55424;BME280;41294;42.666;23.350;2022-08-01T13:29:16;94696.66;;;29.64;37.36
55424;BME280;41294;42.666;23.350;2022-08-01T13:31:42;94684.66;;;29.67;37.31
55424;BME280;41294;42.666;23.350;2022-08-01T13:34:09;94689.69;;;29.80;37.40
55424;BME280;41294;42.666;23.350;2022-08-01T13:36:34;94679.94;;;29.67;37.59